createdAt,value
2023-01-23T00:01:35.190Z,17.70
2023-01-23T00:04:03.962Z,16.88
2023-01-23T00:06:31.547Z,17.13
2023-01-23T00:11:30.218Z,16.00
2023-01-23T00:13:58.729Z,14.38
2023-01-23T00:16:29.137Z,15.00
2023-01-23T00:18:57.385Z,15.32
2023-01-23T00:21:27.927Z,15.10
2023-01-23T00:23:57.295Z,15.70
2023-01-23T00:26:27.296Z,16.20
2023-01-23T00:28:55.297Z,14.85
2023-01-23T00:31:26.661Z,14.23
2023-01-23T00:33:56.956Z,14.75
2023-01-23T00:36:25.423Z,14.07
2023-01-23T00:38:56.754Z,14.00
2023-01-23T00:41:24.647Z,14.90
2023-01-23T00:43:52.347Z,14.88
2023-01-23T00:46:21.278Z,14.18
2023-01-23T00:48:49.116Z,14.20
2023-01-23T00:51:17.424Z,14.60
2023-01-23T00:53:45.277Z,14.27
2023-01-23T00:56:12.856Z,12.90
2023-01-23T01:01:14.937Z,13.73
2023-01-23T01:03:43.321Z,14.90
2023-01-23T01:06:11.334Z,14.15
2023-01-23T01:08:38.846Z,12.57
2023-01-23T01:11:07.237Z,13.20
2023-01-23T01:13:34.806Z,13.57
2023-01-23T01:16:02.464Z,13.73
2023-01-23T01:18:30.610Z,12.70
2023-01-23T01:20:58.473Z,12.45
2023-01-23T01:23:26.331Z,12.18
2023-01-23T01:25:58.278Z,13.38
2023-01-23T01:28:27.358Z,12.65
2023-01-23T01:30:54.866Z,13.48
2023-01-23T01:33:24.392Z,13.35
2023-01-23T01:35:52.868Z,12.75
2023-01-23T01:38:20.428Z,13.32
2023-01-23T01:46:00.327Z,13.30
2023-01-23T01:48:51.922Z,13.52
2023-01-23T01:51:40.867Z,13.95
2023-01-23T01:54:11.363Z,13.15
2023-01-23T01:56:44.986Z,14.32
2023-01-23T01:59:14.387Z,13.93
2023-01-23T02:01:46.270Z,14.00
2023-01-23T02:04:15.793Z,15.02
2023-01-23T02:06:43.886Z,13.32
2023-01-23T02:09:20.447Z,13.25
2023-01-23T02:11:50.296Z,13.45
2023-01-23T02:14:20.673Z,13.70
2023-01-23T02:16:52.184Z,13.02
2023-01-23T02:19:22.915Z,13.65
2023-01-23T02:21:58.024Z,14.55
2023-01-23T02:24:37.124Z,13.25
2023-01-23T02:27:05.111Z,14.38
2023-01-23T02:29:43.875Z,13.52
2023-01-23T02:32:12.099Z,12.68
2023-01-23T02:34:40.289Z,12.88
2023-01-23T02:37:09.211Z,13.30
2023-01-23T02:39:37.707Z,13.27
2023-01-23T02:42:06.011Z,13.15
2023-01-23T02:44:43.044Z,14.40
2023-01-23T02:47:13.104Z,14.43
2023-01-23T02:49:43.094Z,14.43
2023-01-23T02:52:11.504Z,14.18
2023-01-23T02:54:40.746Z,12.68
2023-01-23T02:57:08.915Z,13.07
2023-01-23T02:59:54.827Z,13.60
2023-01-23T03:02:22.924Z,14.82
2023-01-23T03:04:50.420Z,13.52
2023-01-23T03:09:47.965Z,13.20
2023-01-23T03:12:16.181Z,13.18
2023-01-23T03:14:43.756Z,12.90
2023-01-23T03:17:14.869Z,12.57
2023-01-23T03:19:42.897Z,12.82
2023-01-23T03:22:10.597Z,12.48
2023-01-23T03:24:39.911Z,11.35
2023-01-23T03:27:08.645Z,12.13
2023-01-23T03:30:05.256Z,10.93
2023-01-23T03:32:34.187Z,11.93
2023-01-23T03:35:01.631Z,11.95
2023-01-23T03:37:30.296Z,11.82
2023-01-23T03:40:17.428Z,11.20
2023-01-23T03:42:44.980Z,11.82
2023-01-23T03:45:15.223Z,12.00
2023-01-23T03:47:43.170Z,11.82
2023-01-23T03:50:11.550Z,11.07
2023-01-23T03:52:40.247Z,11.57
2023-01-23T03:55:08.629Z,11.30
2023-01-23T03:57:37.056Z,12.00
2023-01-23T04:00:13.900Z,10.77
2023-01-23T04:02:41.692Z,12.30
2023-01-23T04:05:12.062Z,10.77
2023-01-23T04:07:39.852Z,11.75
2023-01-23T04:12:35.556Z,11.07
2023-01-23T04:15:03.303Z,10.43
2023-01-23T04:17:30.902Z,10.55
2023-01-23T04:22:26.449Z,11.10
2023-01-23T04:29:48.613Z,11.25
2023-01-23T04:32:16.075Z,10.52
2023-01-23T04:34:46.688Z,10.90
2023-01-23T04:37:15.079Z,11.15
2023-01-23T04:39:42.798Z,10.77
2023-01-23T04:42:10.716Z,11.13
2023-01-23T04:44:52.521Z,11.15
2023-01-23T04:47:38.474Z,12.60
2023-01-23T04:50:11.293Z,11.20
2023-01-23T04:52:40.514Z,10.77
2023-01-23T04:55:09.496Z,10.88
2023-01-23T04:57:37.236Z,12.30
2023-01-23T05:00:14.444Z,11.32
2023-01-23T05:02:42.051Z,11.02
2023-01-23T05:07:38.684Z,11.10
2023-01-23T05:10:13.097Z,11.30
2023-01-23T05:15:10.036Z,11.50
2023-01-23T05:17:40.751Z,11.18
2023-01-23T05:20:09.356Z,11.30
2023-01-23T05:22:38.990Z,11.45
2023-01-23T05:25:07.589Z,11.45
2023-01-23T05:27:35.266Z,11.00
2023-01-23T05:30:03.322Z,11.35
2023-01-23T05:32:34.573Z,11.10
2023-01-23T05:35:28.149Z,10.77
2023-01-23T05:37:55.827Z,11.40
2023-01-23T05:40:25.003Z,11.82
2023-01-23T05:43:24.612Z,11.00
2023-01-23T05:46:21.309Z,11.00
2023-01-23T05:48:52.559Z,11.40
2023-01-23T05:51:22.545Z,11.13
2023-01-23T05:53:50.972Z,11.25
2023-01-23T05:56:19.049Z,11.30
2023-01-23T05:59:06.730Z,10.95
2023-01-23T06:01:41.799Z,12.63
2023-01-23T06:04:09.419Z,10.82
2023-01-23T06:06:51.367Z,11.45
2023-01-23T06:09:19.187Z,12.35
2023-01-23T06:11:46.806Z,12.15
2023-01-23T06:14:14.369Z,12.63
2023-01-23T06:16:42.001Z,12.10
2023-01-23T06:21:37.897Z,11.00
2023-01-23T06:24:06.129Z,12.23
2023-01-23T06:26:33.932Z,11.90
2023-01-23T06:29:02.309Z,11.95
2023-01-23T06:31:32.577Z,12.90
2023-01-23T06:34:02.447Z,12.48
2023-01-23T06:36:36.531Z,14.07
2023-01-23T06:39:04.690Z,12.13
2023-01-23T06:41:38.731Z,12.90
2023-01-23T06:44:08.280Z,12.77
2023-01-23T06:46:36.815Z,12.35
2023-01-23T06:49:06.398Z,11.82
2023-01-23T06:51:37.181Z,12.13
2023-01-23T06:54:07.088Z,12.68
2023-01-23T06:56:34.645Z,12.13
2023-01-23T06:59:06.215Z,11.77
2023-01-23T07:01:34.308Z,13.90
2023-01-23T07:04:04.507Z,12.60
2023-01-23T07:06:32.530Z,12.27
2023-01-23T07:09:00.289Z,11.93
2023-01-23T07:11:29.265Z,12.75
2023-01-23T07:13:57.595Z,11.85
2023-01-23T07:16:27.023Z,11.98
2023-01-23T07:19:01.649Z,12.43
2023-01-23T07:21:33.409Z,11.88
2023-01-23T07:24:01.109Z,11.70
2023-01-23T07:26:28.747Z,13.45
2023-01-23T07:28:56.360Z,12.43
2023-01-23T07:33:51.714Z,11.05
2023-01-23T07:36:19.258Z,12.27
2023-01-23T07:38:46.676Z,12.35
2023-01-23T07:41:14.896Z,11.80
2023-01-23T07:43:42.395Z,11.85
2023-01-23T07:48:38.149Z,11.40
2023-01-23T07:51:06.876Z,12.98
2023-01-23T07:53:34.460Z,11.77
2023-01-23T07:56:06.078Z,11.95
2023-01-23T07:58:33.838Z,11.48
2023-01-23T08:03:34.742Z,12.32
2023-01-23T08:06:02.639Z,12.25
2023-01-23T08:08:36.483Z,11.88
2023-01-23T08:11:16.047Z,12.18
2023-01-23T08:13:43.701Z,11.43
2023-01-23T08:18:41.255Z,11.73
2023-01-23T08:23:37.130Z,11.30
2023-01-23T08:26:07.403Z,11.05
2023-01-23T08:28:36.237Z,12.07
2023-01-23T08:31:07.273Z,10.93
2023-01-23T08:33:36.653Z,11.48
2023-01-23T08:36:07.342Z,10.95
2023-01-23T08:38:35.789Z,10.63
2023-01-23T08:43:31.769Z,10.57
2023-01-23T08:46:00.301Z,9.98
2023-01-23T08:48:28.609Z,9.65
2023-01-23T08:51:02.071Z,10.23
2023-01-23T08:53:30.387Z,9.90
2023-01-23T08:56:02.501Z,10.10
2023-01-23T08:58:30.674Z,10.23
2023-01-23T09:01:08.151Z,9.63
2023-01-23T09:03:57.256Z,9.60
2023-01-23T09:06:24.799Z,10.27
2023-01-23T09:11:20.321Z,9.60
2023-01-23T09:13:47.944Z,10.23
2023-01-23T09:16:16.444Z,10.23
2023-01-23T09:18:43.943Z,9.88
2023-01-23T09:23:43.543Z,9.43
2023-01-23T09:26:13.764Z,10.18
2023-01-23T09:28:44.038Z,10.27
2023-01-23T09:31:13.787Z,10.07
2023-01-23T09:33:41.898Z,9.48
2023-01-23T09:36:10.428Z,9.55
2023-01-23T09:38:45.015Z,9.45
2023-01-23T09:41:21.007Z,10.13
2023-01-23T09:43:51.486Z,10.23
2023-01-23T09:46:28.861Z,9.13
2023-01-23T09:51:53.030Z,9.35
2023-01-23T09:54:39.068Z,9.60
2023-01-23T09:57:18.443Z,8.75
2023-01-23T10:00:00.209Z,9.73
2023-01-23T10:02:29.517Z,9.52
2023-01-23T10:04:58.778Z,9.13
2023-01-23T10:07:50.022Z,9.35
2023-01-23T10:10:53.572Z,9.63
2023-01-23T10:13:42.663Z,8.68
2023-01-23T10:16:49.393Z,9.15
2023-01-23T10:19:29.309Z,8.70
2023-01-23T10:25:02.787Z,9.13
2023-01-23T10:27:39.048Z,10.13
2023-01-23T10:30:29.007Z,9.52
2023-01-23T10:33:02.489Z,8.80
2023-01-23T10:35:41.136Z,8.77
2023-01-23T10:38:31.007Z,9.23
2023-01-23T10:41:24.589Z,9.38
2023-01-23T10:43:54.494Z,9.02
2023-01-23T10:46:33.422Z,8.93
2023-01-23T10:49:02.158Z,8.63
2023-01-23T10:51:36.443Z,9.13
2023-01-23T10:54:31.814Z,9.07
2023-01-23T10:57:09.092Z,10.40
2023-01-23T10:59:39.699Z,9.18
2023-01-23T11:02:13.050Z,9.32
2023-01-23T11:04:43.379Z,8.57
2023-01-23T11:07:18.437Z,9.02
2023-01-23T11:09:54.676Z,9.15
2023-01-23T11:12:23.992Z,9.50
2023-01-23T11:14:52.528Z,9.05
2023-01-23T11:17:24.076Z,8.50
2023-01-23T11:19:54.568Z,9.00
2023-01-23T11:22:36.989Z,9.55
2023-01-23T11:25:31.695Z,8.82
2023-01-23T11:28:02.623Z,8.73
2023-01-23T11:30:44.152Z,9.25
2023-01-23T11:33:19.600Z,8.20
2023-01-23T11:36:03.200Z,8.75
2023-01-23T11:38:53.083Z,9.45
2023-01-23T11:41:28.389Z,9.45
2023-01-23T11:43:56.412Z,8.93
2023-01-23T11:46:56.069Z,8.77
2023-01-23T11:49:49.722Z,8.95
2023-01-23T11:52:49.665Z,8.10
2023-01-23T11:55:51.332Z,8.45
2023-01-23T11:58:49.002Z,8.63
2023-01-23T12:01:25.516Z,8.23
2023-01-23T12:04:23.772Z,7.47
2023-01-23T12:06:57.281Z,8.40
2023-01-23T12:09:54.525Z,8.52
2023-01-23T12:12:58.820Z,8.45
2023-01-23T12:15:43.830Z,7.90
2023-01-23T12:18:34.505Z,8.40
2023-01-23T12:21:11.699Z,7.85
2023-01-23T12:24:12.569Z,8.20
2023-01-23T12:26:58.338Z,7.90
2023-01-23T12:29:52.573Z,7.80
2023-01-23T12:32:43.229Z,6.90
2023-01-23T12:35:55.806Z,8.00
2023-01-23T12:39:09.342Z,8.60
2023-01-23T12:41:42.764Z,7.95
2023-01-23T12:44:17.344Z,7.82
2023-01-23T12:46:57.516Z,7.70
2023-01-23T12:49:49.293Z,7.97
2023-01-23T12:52:35.822Z,7.95
2023-01-23T12:55:09.764Z,7.95
2023-01-23T12:57:59.874Z,7.43
2023-01-23T13:00:50.665Z,8.23
2023-01-23T13:03:53.334Z,7.93
2023-01-23T13:06:35.235Z,7.80
2023-01-23T13:09:18.436Z,7.50
2023-01-23T13:11:56.270Z,7.63
2023-01-23T13:17:42.186Z,8.18
2023-01-23T13:20:50.394Z,7.47
2023-01-23T13:23:29.454Z,6.88
2023-01-23T13:26:14.280Z,7.35
2023-01-23T13:28:51.866Z,7.30
2023-01-23T13:31:42.347Z,7.28
2023-01-23T13:34:18.973Z,7.07
2023-01-23T13:36:54.351Z,7.32
2023-01-23T13:39:31.785Z,7.60
2023-01-23T13:42:15.211Z,7.20
2023-01-23T13:45:19.616Z,7.28
2023-01-23T14:22:57.141Z,7.57
2023-01-23T14:25:26.405Z,7.82
2023-01-23T14:28:05.480Z,7.55
2023-01-23T14:30:33.218Z,7.82
2023-01-23T14:35:31.441Z,7.55
2023-01-23T14:38:06.875Z,7.63
2023-01-23T14:40:47.052Z,7.65
2023-01-23T14:43:23.693Z,8.05
2023-01-23T14:45:59.757Z,9.05
2023-01-23T14:48:28.207Z,9.13
2023-01-23T14:51:21.540Z,8.50
2023-01-23T14:54:01.405Z,8.70
2023-01-23T14:56:33.355Z,8.57
2023-01-23T14:59:06.551Z,8.75
2023-01-23T15:01:35.914Z,10.52
2023-01-23T15:04:06.602Z,9.27
2023-01-23T15:06:36.575Z,9.23
2023-01-23T15:09:17.627Z,9.77
2023-01-23T15:11:45.738Z,10.15
2023-01-23T15:14:40.003Z,9.77
2023-01-23T15:17:14.824Z,9.18
2023-01-23T15:19:42.653Z,10.07
2023-01-23T15:22:25.124Z,10.77
2023-01-23T15:24:52.898Z,9.95
2023-01-23T15:27:27.025Z,10.02
2023-01-23T15:30:32.705Z,10.02
2023-01-23T15:33:07.478Z,9.63
2023-01-23T15:35:36.735Z,10.60
2023-01-23T15:38:06.216Z,9.63
2023-01-23T15:40:36.912Z,9.27
2023-01-23T15:43:08.454Z,9.93
2023-01-23T15:45:35.980Z,10.60
2023-01-23T15:50:31.049Z,8.95
2023-01-23T15:52:58.735Z,8.80
2023-01-23T15:55:28.715Z,9.45
2023-01-23T15:57:56.650Z,8.63
2023-01-23T16:00:30.728Z,9.02
2023-01-23T16:02:59.650Z,9.20
2023-01-23T16:05:30.232Z,8.75
2023-01-23T16:08:01.300Z,9.35
2023-01-23T16:10:31.588Z,9.73
2023-01-23T16:13:09.950Z,8.73
2023-01-23T16:15:40.029Z,8.57
2023-01-23T16:18:07.885Z,9.40
2023-01-23T16:20:43.728Z,9.13
2023-01-23T16:23:20.092Z,9.15
2023-01-23T16:25:48.980Z,9.03
2023-01-23T16:28:26.014Z,9.23
2023-01-23T16:30:53.781Z,8.05
2023-01-23T16:33:21.682Z,8.77
2023-01-23T16:35:51.012Z,8.70
2023-01-23T16:38:24.800Z,10.73
2023-01-23T16:40:53.976Z,8.38
2023-01-23T16:43:30.000Z,9.52
2023-01-23T16:45:58.364Z,9.90
2023-01-23T16:48:28.519Z,9.35
2023-01-23T16:51:08.329Z,9.30
2023-01-23T16:53:40.934Z,9.55
2023-01-23T16:56:20.544Z,8.77
2023-01-23T16:58:49.469Z,9.18
2023-01-23T17:01:23.690Z,8.38
2023-01-23T17:03:58.787Z,8.60
2023-01-23T17:06:26.597Z,9.70
2023-01-23T17:08:54.063Z,8.20
2023-01-23T17:14:03.595Z,7.63
2023-01-23T17:16:34.352Z,8.13
2023-01-23T17:19:09.584Z,8.32
2023-01-23T17:21:37.136Z,8.88
2023-01-23T17:26:32.280Z,8.13
2023-01-23T17:28:59.857Z,8.88
2023-01-23T17:31:28.916Z,8.65
2023-01-23T17:33:56.552Z,8.85
2023-01-23T17:36:26.490Z,8.35
2023-01-23T17:38:57.463Z,8.32
2023-01-23T17:41:25.483Z,9.05
2023-01-23T17:43:52.978Z,8.27
2023-01-23T17:46:27.032Z,8.52
2023-01-23T17:48:56.545Z,7.78
2023-01-23T17:51:25.265Z,7.90
2023-01-23T17:53:53.390Z,8.60
2023-01-23T17:56:21.001Z,7.38
2023-01-23T17:58:48.652Z,8.13
2023-01-23T18:01:26.341Z,8.05
2023-01-23T18:03:54.223Z,7.47
2023-01-23T18:06:21.786Z,8.23
2023-01-23T18:08:49.532Z,8.07
2023-01-23T18:11:23.482Z,8.45
2023-01-23T18:14:29.954Z,8.88
2023-01-23T18:16:57.936Z,9.15
2023-01-23T18:19:27.644Z,9.10
2023-01-23T18:21:56.948Z,10.35
2023-01-23T18:24:30.496Z,8.75
2023-01-23T18:27:20.197Z,8.57
2023-01-23T18:30:15.563Z,8.40
2023-01-23T18:33:21.363Z,9.15
2023-01-23T18:36:16.760Z,9.35
2023-01-23T18:39:15.019Z,8.20
2023-01-23T18:42:16.280Z,9.23
2023-01-23T18:44:58.769Z,9.15
2023-01-23T18:47:26.564Z,9.77
2023-01-23T18:49:54.234Z,9.57
2023-01-23T18:52:37.693Z,9.50
2023-01-23T18:55:18.420Z,10.50
2023-01-23T18:58:02.293Z,9.60
2023-01-23T19:00:37.536Z,9.05
2023-01-23T19:03:13.838Z,9.23
2023-01-23T19:05:42.562Z,9.13
2023-01-23T19:08:28.096Z,10.45
2023-01-23T19:11:35.988Z,10.35
2023-01-23T19:14:29.986Z,9.57
2023-01-23T19:17:38.965Z,10.65
2023-01-23T19:20:16.742Z,9.88
2023-01-23T19:23:01.746Z,10.55
2023-01-23T19:25:29.984Z,10.73
2023-01-23T19:27:59.727Z,10.13
2023-01-23T19:30:27.696Z,10.88
2023-01-23T19:32:55.226Z,10.02
2023-01-23T19:35:22.854Z,10.85
2023-01-23T19:37:50.418Z,10.85
2023-01-23T19:40:18.462Z,10.43
2023-01-23T19:42:58.469Z,10.63
2023-01-23T19:48:01.313Z,9.60
2023-01-23T19:52:58.749Z,9.93
2023-01-23T19:55:29.536Z,10.75
2023-01-23T19:58:00.665Z,10.60
2023-01-23T20:00:36.092Z,10.20
2023-01-23T20:03:05.161Z,10.18
2023-01-23T20:05:32.687Z,10.98
2023-01-23T20:10:30.521Z,11.30
2023-01-23T20:13:00.883Z,11.55
2023-01-23T20:15:30.128Z,10.63
2023-01-23T20:18:03.387Z,11.75
2023-01-23T20:20:30.979Z,11.60
2023-01-23T20:25:25.763Z,9.93
2023-01-23T20:27:55.719Z,10.65
2023-01-23T20:30:24.194Z,11.63
2023-01-23T20:32:51.995Z,10.93
2023-01-23T20:40:14.345Z,11.80
2023-01-23T20:42:42.056Z,11.85
2023-01-23T20:45:09.989Z,11.32
2023-01-23T20:47:37.850Z,12.95
2023-01-23T20:50:05.811Z,11.38
2023-01-23T20:52:51.578Z,11.55
2023-01-23T20:55:19.347Z,12.27
2023-01-23T20:58:05.215Z,11.05
2023-01-23T21:00:33.118Z,12.30
2023-01-23T21:03:01.280Z,12.50
2023-01-23T21:05:29.251Z,13.00
2023-01-23T21:07:56.917Z,11.63
2023-01-23T21:10:24.639Z,11.48
2023-01-23T21:12:52.116Z,12.38
2023-01-23T21:17:47.154Z,12.75
2023-01-23T21:20:14.698Z,12.38
2023-01-23T21:25:09.570Z,11.68
2023-01-23T21:32:33.150Z,11.45
2023-01-23T21:35:00.819Z,11.77
2023-01-23T21:37:28.542Z,11.77
2023-01-23T21:39:56.306Z,11.95
2023-01-23T21:42:23.753Z,10.82
2023-01-23T21:47:20.523Z,10.80
2023-01-23T21:49:49.666Z,12.32
2023-01-23T21:52:17.215Z,11.48
2023-01-23T21:54:44.727Z,13.00
2023-01-23T22:02:07.567Z,12.35
2023-01-23T22:07:02.615Z,13.57
2023-01-23T22:09:30.174Z,13.38
2023-01-23T22:14:24.996Z,13.20
2023-01-23T22:19:25.596Z,14.48
2023-01-23T22:21:57.345Z,14.27
2023-01-23T22:24:25.043Z,14.10
2023-01-23T22:26:52.544Z,15.48
2023-01-23T22:29:20.213Z,15.05
2023-01-23T22:34:15.032Z,13.88
2023-01-23T22:36:42.413Z,15.00
2023-01-23T22:39:13.965Z,14.82
2023-01-23T22:41:41.545Z,14.23
2023-01-23T22:49:03.569Z,15.05
2023-01-23T22:56:28.034Z,14.35
2023-01-23T22:58:57.016Z,14.85
2023-01-23T23:01:27.299Z,14.88
2023-01-23T23:03:57.971Z,15.10
2023-01-23T23:06:26.368Z,15.23
2023-01-23T23:08:53.885Z,15.77
2023-01-23T23:11:26.296Z,15.13
2023-01-23T23:13:55.812Z,15.63
2023-01-23T23:16:26.232Z,14.27
2023-01-23T23:18:55.331Z,14.35
2023-01-23T23:21:25.364Z,15.27
2023-01-23T23:23:58.056Z,16.48
2023-01-23T23:26:27.827Z,15.55
2023-01-23T23:28:55.703Z,15.18
2023-01-23T23:31:23.784Z,15.05
2023-01-23T23:33:51.299Z,16.48
2023-01-23T23:38:46.148Z,14.73
2023-01-23T23:41:15.736Z,15.00
2023-01-23T23:43:43.805Z,15.68
2023-01-23T23:46:12.772Z,15.95
2023-01-23T23:48:40.444Z,15.45
2023-01-23T23:51:09.786Z,15.43
2023-01-23T23:53:37.387Z,14.70
2023-01-23T23:56:06.535Z,15.60
2023-01-23T23:58:37.261Z,15.30
